sensor_id;sensor_type;location;lat;lon;timestamp;pressure;altitude;pressure_sealevel;temperature;humidity
35716;BME280;21840;44.920;8.616;2022-11-02T00:00:24;101237.56;;;16.92;61.35
35716;BME280;21840;44.920;8.616;2022-11-02T00:02:52;101228.41;;;16.86;61.61
35716;BME280;21840;44.920;8.616;2022-11-02T00:05:17;101226.25;;;17.08;61.18
35716;BME280;21840;44.920;8.616;2022-11-02T00:07:48;101226.66;;;17.21;60.61
35716;BME280;21840;44.920;8.616;2022-11-02T00:10:14;101218.31;;;17.16;60.63
35716;BME280;21840;44.920;8.616;2022-11-02T00:12:40;101214.59;;;17.00;60.71
35716;BME280;21840;44.920;8.616;2022-11-02T00:15:06;101224.47;;;16.90;61.01
35716;BME280;21840;44.920;8.616;2022-11-02T00:17:32;101222.63;;;16.91;61.17
35716;BME280;21840;44.920;8.616;2022-11-02T00:20:03;101219.00;;;16.74;61.27
35716;BME280;21840;44.920;8.616;2022-11-02T00:22:30;101220.09;;;16.45;61.98
35716;BME280;21840;44.920;8.616;2022-11-02T00:24:58;101216.59;;;16.63;61.49
35716;BME280;21840;44.920;8.616;2022-11-02T00:27:25;101221.66;;;16.74;61.42
35716;BME280;21840;44.920;8.616;2022-11-02T00:29:50;101218.94;;;16.66;61.43
35716;BME280;21840;44.920;8.616;2022-11-02T00:32:16;101211.41;;;16.35;62.22
35716;BME280;21840;44.920;8.616;2022-11-02T00:34:41;101218.56;;;16.78;61.29
35716;BME280;21840;44.920;8.616;2022-11-02T00:37:06;101221.59;;;16.84;61.21
35716;BME280;21840;44.920;8.616;2022-11-02T00:39:32;101222.31;;;16.94;60.86
35716;BME280;21840;44.920;8.616;2022-11-02T00:41:57;101221.13;;;16.88;61.06
35716;BME280;21840;44.920;8.616;2022-11-02T00:44:23;101212.44;;;16.78;61.05
35716;BME280;21840;44.920;8.616;2022-11-02T00:46:48;101213.25;;;16.60;61.57
35716;BME280;21840;44.920;8.616;2022-11-02T00:49:14;101213.72;;;16.56;61.74
35716;BME280;21840;44.920;8.616;2022-11-02T00:51:39;101210.28;;;16.81;61.24
35716;BME280;21840;44.920;8.616;2022-11-02T00:54:05;101213.69;;;16.74;61.75
35716;BME280;21840;44.920;8.616;2022-11-02T00:56:31;101216.13;;;16.85;61.27
35716;BME280;21840;44.920;8.616;2022-11-02T00:58:57;101210.59;;;17.04;60.75
35716;BME280;21840;44.920;8.616;2022-11-02T01:01:22;101213.69;;;17.18;60.52
35716;BME280;21840;44.920;8.616;2022-11-02T01:03:48;101215.19;;;16.76;61.50
35716;BME280;21840;44.920;8.616;2022-11-02T01:06:14;101216.28;;;16.66;62.16
35716;BME280;21840;44.920;8.616;2022-11-02T01:08:40;101216.34;;;16.74;61.72
35716;BME280;21840;44.920;8.616;2022-11-02T01:11:14;101219.34;;;16.97;61.38
35716;BME280;21840;44.920;8.616;2022-11-02T01:13:40;101230.22;;;17.12;61.16
35716;BME280;21840;44.920;8.616;2022-11-02T01:16:07;101225.25;;;16.83;61.48
35716;BME280;21840;44.920;8.616;2022-11-02T01:18:33;101221.84;;;16.98;61.08
35716;BME280;21840;44.920;8.616;2022-11-02T01:20:59;101216.03;;;16.95;61.51
35716;BME280;21840;44.920;8.616;2022-11-02T01:23:24;101226.75;;;16.85;61.38
35716;BME280;21840;44.920;8.616;2022-11-02T01:25:50;101217.28;;;17.09;61.11
35716;BME280;21840;44.920;8.616;2022-11-02T01:28:18;101220.94;;;17.08;61.04
35716;BME280;21840;44.920;8.616;2022-11-02T01:30:46;101215.78;;;16.80;61.70
35716;BME280;21840;44.920;8.616;2022-11-02T01:33:12;101212.63;;;17.02;61.20
35716;BME280;21840;44.920;8.616;2022-11-02T01:35:37;101208.22;;;17.19;60.89
35716;BME280;21840;44.920;8.616;2022-11-02T01:38:03;101207.31;;;17.02;61.47
35716;BME280;21840;44.920;8.616;2022-11-02T01:40:38;101201.47;;;16.55;62.40
35716;BME280;21840;44.920;8.616;2022-11-02T01:45:55;101185.72;;;16.97;61.72
35716;BME280;21840;44.920;8.616;2022-11-02T01:48:50;101192.03;;;17.04;61.44
35716;BME280;21840;44.920;8.616;2022-11-02T01:51:31;101181.41;;;17.04;61.33
35716;BME280;21840;44.920;8.616;2022-11-02T01:54:02;101185.47;;;17.17;60.96
35716;BME280;21840;44.920;8.616;2022-11-02T01:56:31;101190.84;;;17.25;60.64
35716;BME280;21840;44.920;8.616;2022-11-02T01:59:02;101188.00;;;17.27;60.53
35716;BME280;21840;44.920;8.616;2022-11-02T02:01:29;101187.91;;;17.36;60.24
35716;BME280;21840;44.920;8.616;2022-11-02T02:03:56;101190.88;;;17.07;60.67
35716;BME280;21840;44.920;8.616;2022-11-02T02:06:22;101195.25;;;16.72;61.67
35716;BME280;21840;44.920;8.616;2022-11-02T02:08:51;101190.75;;;16.65;61.97
35716;BME280;21840;44.920;8.616;2022-11-02T02:13:53;101195.03;;;17.10;60.59
35716;BME280;21840;44.920;8.616;2022-11-02T02:16:33;101193.97;;;16.94;61.28
35716;BME280;21840;44.920;8.616;2022-11-02T02:19:08;101189.09;;;17.08;60.96
35716;BME280;21840;44.920;8.616;2022-11-02T02:24:29;101182.78;;;17.09;61.05
35716;BME280;21840;44.920;8.616;2022-11-02T02:27:06;101183.56;;;17.01;61.21
35716;BME280;21840;44.920;8.616;2022-11-02T02:29:52;101178.91;;;17.29;60.64
35716;BME280;21840;44.920;8.616;2022-11-02T02:32:27;101174.97;;;17.41;60.29
35716;BME280;21840;44.920;8.616;2022-11-02T02:35:23;101176.19;;;17.13;60.81
35716;BME280;21840;44.920;8.616;2022-11-02T02:37:55;101177.38;;;17.18;60.72
35716;BME280;21840;44.920;8.616;2022-11-02T02:40:47;101168.94;;;17.23;61.00
35716;BME280;21840;44.920;8.616;2022-11-02T02:43:52;101172.91;;;17.27;60.74
35716;BME280;21840;44.920;8.616;2022-11-02T02:49:18;101166.75;;;17.53;60.07
35716;BME280;21840;44.920;8.616;2022-11-02T02:51:47;101165.06;;;17.52;60.08
35716;BME280;21840;44.920;8.616;2022-11-02T02:54:24;101168.25;;;17.55;59.96
35716;BME280;21840;44.920;8.616;2022-11-02T02:56:53;101165.09;;;16.91;61.46
35716;BME280;21840;44.920;8.616;2022-11-02T02:59:25;101157.84;;;17.01;61.30
35716;BME280;21840;44.920;8.616;2022-11-02T03:01:53;101159.69;;;17.35;60.33
35716;BME280;21840;44.920;8.616;2022-11-02T03:04:20;101154.63;;;17.58;59.83
35716;BME280;21840;44.920;8.616;2022-11-02T03:06:52;101157.63;;;17.55;59.73
35716;BME280;21840;44.920;8.616;2022-11-02T03:12:03;101167.00;;;17.41;60.48
35716;BME280;21840;44.920;8.616;2022-11-02T03:20:28;101171.16;;;17.44;60.82
35716;BME280;21840;44.920;8.616;2022-11-02T03:23:18;101173.19;;;17.50;60.63
35716;BME280;21840;44.920;8.616;2022-11-02T03:31:36;101173.34;;;17.49;60.46
35716;BME280;21840;44.920;8.616;2022-11-02T03:37:00;101171.94;;;17.28;61.16
35716;BME280;21840;44.920;8.616;2022-11-02T03:39:41;101169.22;;;17.54;60.79
35716;BME280;21840;44.920;8.616;2022-11-02T03:42:10;101172.41;;;17.66;60.31
35716;BME280;21840;44.920;8.616;2022-11-02T03:44:38;101175.44;;;17.37;61.37
35716;BME280;21840;44.920;8.616;2022-11-02T03:47:07;101175.50;;;17.45;61.27
35716;BME280;21840;44.920;8.616;2022-11-02T03:49:39;101177.97;;;17.12;61.82
35716;BME280;21840;44.920;8.616;2022-11-02T03:52:10;101182.66;;;17.53;61.37
35716;BME280;21840;44.920;8.616;2022-11-02T03:55:01;101182.22;;;17.74;60.41
35716;BME280;21840;44.920;8.616;2022-11-02T03:57:36;101175.31;;;17.46;60.83
35716;BME280;21840;44.920;8.616;2022-11-02T04:00:16;101183.72;;;17.68;60.51
35716;BME280;21840;44.920;8.616;2022-11-02T04:02:52;101186.13;;;17.87;60.19
35716;BME280;21840;44.920;8.616;2022-11-02T04:05:18;101181.44;;;17.81;60.43
35716;BME280;21840;44.920;8.616;2022-11-02T04:07:49;101177.41;;;17.69;60.44
35716;BME280;21840;44.920;8.616;2022-11-02T04:10:35;101174.84;;;17.51;61.37
35716;BME280;21840;44.920;8.616;2022-11-02T04:13:21;101181.75;;;17.36;62.40
35716;BME280;21840;44.920;8.616;2022-11-02T04:16:06;101178.97;;;17.37;62.11
35716;BME280;21840;44.920;8.616;2022-11-02T04:18:31;101180.13;;;17.09;63.13
35716;BME280;21840;44.920;8.616;2022-11-02T04:21:15;101183.38;;;17.71;61.67
35716;BME280;21840;44.920;8.616;2022-11-02T04:23:41;101185.03;;;17.72;61.56
35716;BME280;21840;44.920;8.616;2022-11-02T04:26:26;101179.38;;;17.67;61.64
35716;BME280;21840;44.920;8.616;2022-11-02T04:28:52;101176.81;;;17.83;61.30
35716;BME280;21840;44.920;8.616;2022-11-02T04:31:17;101182.13;;;17.83;61.47
35716;BME280;21840;44.920;8.616;2022-11-02T04:33:43;101181.84;;;17.95;61.07
35716;BME280;21840;44.920;8.616;2022-11-02T04:36:14;101184.16;;;17.98;60.85
35716;BME280;21840;44.920;8.616;2022-11-02T04:38:41;101188.69;;;17.71;61.75
35716;BME280;21840;44.920;8.616;2022-11-02T04:41:19;101197.91;;;17.42;62.37
35716;BME280;21840;44.920;8.616;2022-11-02T04:44:10;101195.75;;;17.46;62.20
35716;BME280;21840;44.920;8.616;2022-11-02T04:46:50;101188.38;;;17.74;61.64
35716;BME280;21840;44.920;8.616;2022-11-02T04:49:16;101193.13;;;17.54;62.13
35716;BME280;21840;44.920;8.616;2022-11-02T04:51:43;101193.16;;;17.62;62.26
35716;BME280;21840;44.920;8.616;2022-11-02T04:54:09;101194.13;;;17.53;62.39
35716;BME280;21840;44.920;8.616;2022-11-02T04:56:36;101198.91;;;17.50;62.57
35716;BME280;21840;44.920;8.616;2022-11-02T04:59:02;101193.31;;;17.27;63.40
35716;BME280;21840;44.920;8.616;2022-11-02T05:01:32;101196.63;;;17.20;63.68
35716;BME280;21840;44.920;8.616;2022-11-02T05:03:59;101192.66;;;17.24;63.59
35716;BME280;21840;44.920;8.616;2022-11-02T05:06:27;101193.50;;;17.25;63.06
35716;BME280;21840;44.920;8.616;2022-11-02T05:08:54;101195.28;;;17.24;63.13
35716;BME280;21840;44.920;8.616;2022-11-02T05:11:20;101198.69;;;17.35;62.92
35716;BME280;21840;44.920;8.616;2022-11-02T05:13:48;101197.31;;;17.22;62.92
35716;BME280;21840;44.920;8.616;2022-11-02T05:16:15;101192.94;;;17.13;63.50
35716;BME280;21840;44.920;8.616;2022-11-02T05:18:41;101187.72;;;17.03;63.61
35716;BME280;21840;44.920;8.616;2022-11-02T05:21:08;101194.97;;;16.93;64.12
35716;BME280;21840;44.920;8.616;2022-11-02T05:23:34;101190.94;;;16.89;63.84
35716;BME280;21840;44.920;8.616;2022-11-02T05:26:03;101194.75;;;16.87;64.19
35716;BME280;21840;44.920;8.616;2022-11-02T05:28:32;101198.59;;;16.92;63.75
35716;BME280;21840;44.920;8.616;2022-11-02T05:30:59;101202.59;;;16.96;63.44
35716;BME280;21840;44.920;8.616;2022-11-02T05:33:29;101208.00;;;16.87;63.87
35716;BME280;21840;44.920;8.616;2022-11-02T05:35:57;101207.81;;;16.80;63.77
35716;BME280;21840;44.920;8.616;2022-11-02T05:38:25;101203.53;;;16.87;63.77
35716;BME280;21840;44.920;8.616;2022-11-02T05:40:56;101210.47;;;16.80;63.64
35716;BME280;21840;44.920;8.616;2022-11-02T05:43:25;101201.25;;;16.92;63.40
35716;BME280;21840;44.920;8.616;2022-11-02T05:45:59;101206.63;;;17.00;63.34
35716;BME280;21840;44.920;8.616;2022-11-02T05:48:26;101212.94;;;16.81;63.78
35716;BME280;21840;44.920;8.616;2022-11-02T05:50:56;101211.97;;;17.09;63.56
35716;BME280;21840;44.920;8.616;2022-11-02T05:53:23;101212.63;;;16.85;63.85
35716;BME280;21840;44.920;8.616;2022-11-02T05:55:49;101217.84;;;16.94;64.15
35716;BME280;21840;44.920;8.616;2022-11-02T05:58:14;101215.66;;;16.72;64.75
35716;BME280;21840;44.920;8.616;2022-11-02T06:00:40;101221.72;;;16.82;64.49
35716;BME280;21840;44.920;8.616;2022-11-02T06:03:05;101223.50;;;16.99;64.03
35716;BME280;21840;44.920;8.616;2022-11-02T06:05:31;101227.09;;;16.72;64.77
35716;BME280;21840;44.920;8.616;2022-11-02T06:07:58;101226.59;;;16.69;64.83
35716;BME280;21840;44.920;8.616;2022-11-02T06:10:25;101232.28;;;16.56;65.62
35716;BME280;21840;44.920;8.616;2022-11-02T06:12:58;101229.00;;;16.44;65.84
35716;BME280;21840;44.920;8.616;2022-11-02T06:15:25;101228.41;;;16.32;65.79
35716;BME280;21840;44.920;8.616;2022-11-02T06:17:51;101236.75;;;16.55;65.77
35716;BME280;21840;44.920;8.616;2022-11-02T06:20:17;101244.31;;;16.68;65.66
35716;BME280;21840;44.920;8.616;2022-11-02T06:22:43;101238.56;;;16.73;65.29
35716;BME280;21840;44.920;8.616;2022-11-02T06:25:08;101232.78;;;16.95;64.88
35716;BME280;21840;44.920;8.616;2022-11-02T06:27:34;101235.81;;;17.00;64.68
35716;BME280;21840;44.920;8.616;2022-11-02T06:30:01;101238.94;;;16.96;64.37
35716;BME280;21840;44.920;8.616;2022-11-02T06:32:27;101239.88;;;17.13;63.99
35716;BME280;21840;44.920;8.616;2022-11-02T06:34:52;101246.63;;;17.07;63.79
35716;BME280;21840;44.920;8.616;2022-11-02T06:37:18;101245.44;;;17.01;64.03
35716;BME280;21840;44.920;8.616;2022-11-02T06:39:43;101242.22;;;17.16;63.76
35716;BME280;21840;44.920;8.616;2022-11-02T06:42:09;101240.69;;;17.13;63.78
35716;BME280;21840;44.920;8.616;2022-11-02T06:44:34;101241.66;;;17.30;63.34
35716;BME280;21840;44.920;8.616;2022-11-02T06:47:00;101240.78;;;17.30;63.38
35716;BME280;21840;44.920;8.616;2022-11-02T06:49:25;101241.72;;;17.46;62.90
35716;BME280;21840;44.920;8.616;2022-11-02T06:51:51;101248.25;;;17.26;63.32
35716;BME280;21840;44.920;8.616;2022-11-02T06:54:17;101243.91;;;17.51;62.87
35716;BME280;21840;44.920;8.616;2022-11-02T06:56:42;101248.25;;;17.26;63.33
35716;BME280;21840;44.920;8.616;2022-11-02T06:59:10;101246.66;;;17.41;63.38
35716;BME280;21840;44.920;8.616;2022-11-02T07:01:36;101246.44;;;17.61;62.81
35716;BME280;21840;44.920;8.616;2022-11-02T07:04:02;101246.63;;;17.33;63.48
35716;BME280;21840;44.920;8.616;2022-11-02T07:06:30;101245.03;;;17.49;63.14
35716;BME280;21840;44.920;8.616;2022-11-02T07:08:56;101255.84;;;17.81;62.36
35716;BME280;21840;44.920;8.616;2022-11-02T07:11:21;101266.06;;;17.68;62.63
35716;BME280;21840;44.920;8.616;2022-11-02T07:13:47;101267.47;;;17.80;62.25
35716;BME280;21840;44.920;8.616;2022-11-02T07:16:12;101270.63;;;17.84;62.42
35716;BME280;21840;44.920;8.616;2022-11-02T07:18:39;101272.78;;;17.80;62.55
35716;BME280;21840;44.920;8.616;2022-11-02T07:21:05;101281.97;;;17.94;62.17
35716;BME280;21840;44.920;8.616;2022-11-02T07:23:31;101279.03;;;17.79;62.64
35716;BME280;21840;44.920;8.616;2022-11-02T07:25:56;101279.03;;;17.71;62.86
35716;BME280;21840;44.920;8.616;2022-11-02T07:28:22;101287.75;;;17.55;62.95
35716;BME280;21840;44.920;8.616;2022-11-02T07:30:47;101292.50;;;17.43;63.40
35716;BME280;21840;44.920;8.616;2022-11-02T07:33:13;101295.28;;;17.42;63.67
35716;BME280;21840;44.920;8.616;2022-11-02T07:35:38;101304.06;;;17.95;62.77
35716;BME280;21840;44.920;8.616;2022-11-02T07:38:05;101305.38;;;17.91;62.65
35716;BME280;21840;44.920;8.616;2022-11-02T07:40:33;101305.19;;;17.92;62.77
35716;BME280;21840;44.920;8.616;2022-11-02T07:42:59;101304.34;;;17.83;62.88
35716;BME280;21840;44.920;8.616;2022-11-02T07:45:35;101302.03;;;17.80;62.79
35716;BME280;21840;44.920;8.616;2022-11-02T07:48:00;101308.53;;;17.94;62.71
35716;BME280;21840;44.920;8.616;2022-11-02T07:50:26;101312.09;;;18.11;62.20
35716;BME280;21840;44.920;8.616;2022-11-02T07:52:53;101316.06;;;17.73;62.95
35716;BME280;21840;44.920;8.616;2022-11-02T07:55:24;101312.81;;;17.87;62.75
35716;BME280;21840;44.920;8.616;2022-11-02T07:58:08;101320.84;;;17.69;63.29
35716;BME280;21840;44.920;8.616;2022-11-02T08:00:36;101314.38;;;17.72;63.40
35716;BME280;21840;44.920;8.616;2022-11-02T08:03:04;101307.03;;;17.57;63.95
35716;BME280;21840;44.920;8.616;2022-11-02T08:05:33;101309.44;;;18.11;62.49
35716;BME280;21840;44.920;8.616;2022-11-02T08:08:03;101310.41;;;18.02;62.79
35716;BME280;21840;44.920;8.616;2022-11-02T08:10:31;101308.13;;;18.15;62.23
35716;BME280;21840;44.920;8.616;2022-11-02T08:12:57;101295.09;;;17.96;62.72
35716;BME280;21840;44.920;8.616;2022-11-02T08:15:25;101306.09;;;18.09;62.53
35716;BME280;21840;44.920;8.616;2022-11-02T08:18:11;101301.38;;;18.37;61.84
35716;BME280;21840;44.920;8.616;2022-11-02T08:20:37;101300.19;;;18.23;62.14
35716;BME280;21840;44.920;8.616;2022-11-02T08:23:04;101296.75;;;18.56;61.46
35716;BME280;21840;44.920;8.616;2022-11-02T08:25:30;101305.06;;;18.52;61.44
35716;BME280;21840;44.920;8.616;2022-11-02T08:28:00;101299.94;;;18.67;61.21
35716;BME280;21840;44.920;8.616;2022-11-02T08:30:28;101292.81;;;18.76;61.04
35716;BME280;21840;44.920;8.616;2022-11-02T08:32:53;101293.66;;;18.93;61.09
35716;BME280;21840;44.920;8.616;2022-11-02T08:35:19;101286.44;;;19.43;59.87
35716;BME280;21840;44.920;8.616;2022-11-02T08:37:52;101284.00;;;19.08;59.72
35716;BME280;21840;44.920;8.616;2022-11-02T08:40:17;101284.28;;;19.38;59.57
35716;BME280;21840;44.920;8.616;2022-11-02T08:42:43;101285.47;;;19.27;59.65
35716;BME280;21840;44.920;8.616;2022-11-02T08:45:08;101283.41;;;19.46;58.83
35716;BME280;21840;44.920;8.616;2022-11-02T08:47:39;101279.63;;;19.24;59.08
35716;BME280;21840;44.920;8.616;2022-11-02T08:50:05;101275.66;;;19.28;58.89
35716;BME280;21840;44.920;8.616;2022-11-02T08:52:34;101274.66;;;19.21;59.18
35716;BME280;21840;44.920;8.616;2022-11-02T08:55:00;101270.69;;;19.64;58.25
35716;BME280;21840;44.920;8.616;2022-11-02T08:57:26;101270.88;;;19.63;58.03
35716;BME280;21840;44.920;8.616;2022-11-02T08:59:51;101271.97;;;19.29;58.72
35716;BME280;21840;44.920;8.616;2022-11-02T09:02:17;101268.78;;;19.50;58.18
35716;BME280;21840;44.920;8.616;2022-11-02T09:04:42;101269.44;;;19.44;58.17
35716;BME280;21840;44.920;8.616;2022-11-02T09:07:08;101269.97;;;19.31;58.51
35716;BME280;21840;44.920;8.616;2022-11-02T09:09:33;101265.94;;;19.43;58.25
35716;BME280;21840;44.920;8.616;2022-11-02T09:11:59;101261.94;;;19.39;58.49
35716;BME280;21840;44.920;8.616;2022-11-02T09:14:24;101266.13;;;19.33;58.21
35716;BME280;21840;44.920;8.616;2022-11-02T09:16:50;101262.44;;;19.51;58.00
35716;BME280;21840;44.920;8.616;2022-11-02T09:19:15;101261.75;;;19.49;57.64
35716;BME280;21840;44.920;8.616;2022-11-02T09:21:41;101255.31;;;19.35;57.95
35716;BME280;21840;44.920;8.616;2022-11-02T09:24:06;101258.00;;;19.27;58.41
35716;BME280;21840;44.920;8.616;2022-11-02T09:26:32;101261.66;;;19.26;58.35
35716;BME280;21840;44.920;8.616;2022-11-02T09:28:58;101264.50;;;19.32;58.23
35716;BME280;21840;44.920;8.616;2022-11-02T09:31:23;101266.19;;;18.60;60.05
35716;BME280;21840;44.920;8.616;2022-11-02T09:33:49;101264.38;;;18.85;59.82
35716;BME280;21840;44.920;8.616;2022-11-02T09:36:14;101267.69;;;19.03;59.13
35716;BME280;21840;44.920;8.616;2022-11-02T09:38:39;101267.66;;;19.28;58.89
35716;BME280;21840;44.920;8.616;2022-11-02T09:41:16;101270.69;;;19.08;59.30
35716;BME280;21840;44.920;8.616;2022-11-02T09:46:22;101273.69;;;19.05;59.69
35716;BME280;21840;44.920;8.616;2022-11-02T09:51:40;101278.00;;;19.06;59.52
35716;BME280;21840;44.920;8.616;2022-11-02T09:56:33;101298.97;;;19.01;59.06
35716;BME280;21840;44.920;8.616;2022-11-02T09:59:02;101299.78;;;19.02;58.87
35716;BME280;21840;44.920;8.616;2022-11-02T10:07:28;101300.28;;;19.13;58.71
35716;BME280;21840;44.920;8.616;2022-11-02T10:15:26;101297.16;;;19.10;58.63
35716;BME280;21840;44.920;8.616;2022-11-02T10:17:57;101293.28;;;19.29;58.39
35716;BME280;21840;44.920;8.616;2022-11-02T10:20:27;101292.44;;;19.28;58.41
35716;BME280;21840;44.920;8.616;2022-11-02T10:22:58;101294.88;;;19.63;57.42
35716;BME280;21840;44.920;8.616;2022-11-02T10:25:27;101289.97;;;19.91;56.77
35716;BME280;21840;44.920;8.616;2022-11-02T10:27:59;101295.22;;;19.51;57.25
35716;BME280;21840;44.920;8.616;2022-11-02T10:30:29;101292.16;;;19.87;56.25
35716;BME280;21840;44.920;8.616;2022-11-02T10:32:55;101292.69;;;19.66;56.58
35716;BME280;21840;44.920;8.616;2022-11-02T10:35:37;101291.66;;;18.95;58.21
35716;BME280;21840;44.920;8.616;2022-11-02T10:46:37;101268.50;;;19.20;57.54
35716;BME280;21840;44.920;8.616;2022-11-02T10:52:13;101272.63;;;19.95;56.05
35716;BME280;21840;44.920;8.616;2022-11-02T10:54:38;101264.31;;;19.90;55.94
35716;BME280;21840;44.920;8.616;2022-11-02T10:57:19;101261.47;;;19.91;56.13
35716;BME280;21840;44.920;8.616;2022-11-02T11:00:22;101260.69;;;20.14;55.28
35716;BME280;21840;44.920;8.616;2022-11-02T11:03:04;101256.59;;;20.26;55.14
35716;BME280;21840;44.920;8.616;2022-11-02T11:05:31;101252.66;;;20.68;54.38
35716;BME280;21840;44.920;8.616;2022-11-02T11:07:58;101251.63;;;20.92;53.50
35716;BME280;21840;44.920;8.616;2022-11-02T11:10:24;101249.34;;;21.04;52.92
35716;BME280;21840;44.920;8.616;2022-11-02T11:12:53;101250.91;;;21.13;52.63
35716;BME280;21840;44.920;8.616;2022-11-02T11:15:26;101245.84;;;21.03;52.82
35716;BME280;21840;44.920;8.616;2022-11-02T11:17:54;101245.28;;;20.93;53.06
35716;BME280;21840;44.920;8.616;2022-11-02T11:20:30;101237.38;;;21.00;53.07
35716;BME280;21840;44.920;8.616;2022-11-02T11:23:22;101238.59;;;21.27;52.12
35716;BME280;21840;44.920;8.616;2022-11-02T11:26:04;101232.50;;;21.18;52.19
35716;BME280;21840;44.920;8.616;2022-11-02T11:28:52;101231.84;;;21.16;52.09
35716;BME280;21840;44.920;8.616;2022-11-02T11:31:18;101235.97;;;21.04;52.57
35716;BME280;21840;44.920;8.616;2022-11-02T11:33:55;101221.34;;;21.00;52.70
35716;BME280;21840;44.920;8.616;2022-11-02T11:36:44;101225.03;;;21.14;52.08
35716;BME280;21840;44.920;8.616;2022-11-02T11:39:28;101219.75;;;20.90;52.42
35716;BME280;21840;44.920;8.616;2022-11-02T11:41:56;101209.34;;;20.81;52.81
35716;BME280;21840;44.920;8.616;2022-11-02T11:44:22;101206.31;;;20.99;52.81
35716;BME280;21840;44.920;8.616;2022-11-02T11:46:51;101199.53;;;20.35;54.26
35716;BME280;21840;44.920;8.616;2022-11-02T11:49:22;101192.56;;;20.57;53.84
35716;BME280;21840;44.920;8.616;2022-11-02T11:51:50;101199.53;;;20.12;54.85
35716;BME280;21840;44.920;8.616;2022-11-02T11:54:30;101194.50;;;20.17;54.56
35716;BME280;21840;44.920;8.616;2022-11-02T11:57:31;101189.34;;;20.62;54.06
35716;BME280;21840;44.920;8.616;2022-11-02T11:59:58;101179.88;;;20.51;54.17
35716;BME280;21840;44.920;8.616;2022-11-02T12:02:35;101184.84;;;20.39;53.77
35716;BME280;21840;44.920;8.616;2022-11-02T12:05:16;101181.63;;;20.67;53.71
35716;BME280;21840;44.920;8.616;2022-11-02T12:07:47;101181.09;;;20.86;53.33
35716;BME280;21840;44.920;8.616;2022-11-02T12:13:13;101172.25;;;20.48;53.66
35716;BME280;21840;44.920;8.616;2022-11-02T12:15:45;101156.97;;;20.19;54.83
35716;BME280;21840;44.920;8.616;2022-11-02T12:18:37;101161.34;;;20.58;53.88
35716;BME280;21840;44.920;8.616;2022-11-02T12:42:34;101128.31;;;21.48;51.41
35716;BME280;21840;44.920;8.616;2022-11-02T12:45:43;101135.69;;;21.31;51.36
35716;BME280;21840;44.920;8.616;2022-11-02T12:48:23;101121.88;;;21.42;51.19
35716;BME280;21840;44.920;8.616;2022-11-02T12:51:05;101131.38;;;21.15;51.36
35716;BME280;21840;44.920;8.616;2022-11-02T12:56:38;101121.72;;;20.84;51.85
35716;BME280;21840;44.920;8.616;2022-11-02T12:59:13;101114.06;;;21.11;51.27
35716;BME280;21840;44.920;8.616;2022-11-02T13:01:42;101114.88;;;21.11;50.94
35716;BME280;21840;44.920;8.616;2022-11-02T13:04:24;101109.66;;;20.88;51.10
35716;BME280;21840;44.920;8.616;2022-11-02T13:06:55;101119.50;;;20.35;52.04
35716;BME280;21840;44.920;8.616;2022-11-02T13:09:38;101125.63;;;19.67;54.35
35716;BME280;21840;44.920;8.616;2022-11-02T13:12:13;101115.59;;;20.23;53.31
35716;BME280;21840;44.920;8.616;2022-11-02T13:14:46;101106.94;;;19.04;55.77
35716;BME280;21840;44.920;8.616;2022-11-02T13:19:54;101109.84;;;19.65;55.19
35716;BME280;21840;44.920;8.616;2022-11-02T13:22:27;101110.50;;;20.51;53.14
35716;BME280;21840;44.920;8.616;2022-11-02T13:24:57;101103.66;;;20.34;52.98
35716;BME280;21840;44.920;8.616;2022-11-02T13:27:35;101096.94;;;20.90;51.60
35716;BME280;21840;44.920;8.616;2022-11-02T13:30:05;101094.13;;;21.28;50.71
35716;BME280;21840;44.920;8.616;2022-11-02T13:32:41;101093.88;;;21.74;49.89
35716;BME280;21840;44.920;8.616;2022-11-02T13:35:19;101083.72;;;21.48;49.97
35716;BME280;21840;44.920;8.616;2022-11-02T13:37:52;101087.16;;;21.64;49.52
35716;BME280;21840;44.920;8.616;2022-11-02T13:40:30;101082.75;;;21.05;50.13
35716;BME280;21840;44.920;8.616;2022-11-02T13:43:34;101089.59;;;20.93;50.74
35716;BME280;21840;44.920;8.616;2022-11-02T13:46:28;101078.06;;;21.07;50.49
35716;BME280;21840;44.920;8.616;2022-11-02T13:49:05;101079.34;;;20.96;50.72
35716;BME280;21840;44.920;8.616;2022-11-02T13:52:14;101067.84;;;20.96;50.78
35716;BME280;21840;44.920;8.616;2022-11-02T13:54:39;101068.22;;;20.93;50.69
35716;BME280;21840;44.920;8.616;2022-11-02T13:59:46;101074.88;;;20.97;50.68
35716;BME280;21840;44.920;8.616;2022-11-02T14:02:15;101067.94;;;21.02;50.57
35716;BME280;21840;44.920;8.616;2022-11-02T14:04:43;101069.66;;;21.25;50.81
35716;BME280;21840;44.920;8.616;2022-11-02T14:07:23;101068.34;;;21.72;49.30
35716;BME280;21840;44.920;8.616;2022-11-02T14:10:02;101071.66;;;21.38;50.02
35716;BME280;21840;44.920;8.616;2022-11-02T14:12:40;101065.47;;;21.37;49.73
35716;BME280;21840;44.920;8.616;2022-11-02T14:30:45;101073.03;;;21.33;50.11
35716;BME280;21840;44.920;8.616;2022-11-02T14:39:12;101064.72;;;21.07;51.03
35716;BME280;21840;44.920;8.616;2022-11-02T14:47:10;101055.97;;;20.98;51.19
35716;BME280;21840;44.920;8.616;2022-11-02T14:52:35;101055.72;;;20.78;51.90
35716;BME280;21840;44.920;8.616;2022-11-02T14:57:33;101068.03;;;20.50;52.46
35716;BME280;21840;44.920;8.616;2022-11-02T15:00:04;101060.34;;;20.32;52.90
35716;BME280;21840;44.920;8.616;2022-11-02T15:02:40;101064.78;;;20.39;52.94
35716;BME280;21840;44.920;8.616;2022-11-02T15:05:15;101059.63;;;20.38;53.16
35716;BME280;21840;44.920;8.616;2022-11-02T15:08:04;101067.59;;;20.23;53.62
35716;BME280;21840;44.920;8.616;2022-11-02T15:18:35;101050.25;;;20.27;53.43
35716;BME280;21840;44.920;8.616;2022-11-02T15:26:18;101047.72;;;20.11;53.22